createdAt,value
2018-08-04T00:00:56.609Z,21.30
2018-08-04T00:04:01.097Z,21.30
2018-08-04T00:07:05.543Z,21.30
2018-08-04T00:10:16.996Z,21.30
2018-08-04T00:13:21.517Z,21.30
2018-08-04T00:16:26.265Z,21.20
2018-08-04T00:19:30.835Z,21.30
2018-08-04T00:22:35.328Z,21.20
2018-08-04T00:25:40.109Z,21.10
2018-08-04T00:28:44.996Z,21.00
2018-08-04T00:31:49.632Z,20.80
2018-08-04T00:34:54.359Z,20.80
2018-08-04T00:37:58.867Z,20.80
2018-08-04T00:41:03.593Z,20.80
2018-08-04T00:44:08.177Z,20.70
2018-08-04T00:47:12.603Z,20.70
2018-08-04T00:53:21.655Z,20.40
2018-08-04T00:56:26.386Z,20.60
2018-08-04T00:59:30.674Z,20.50
2018-08-04T01:05:39.389Z,20.30
2018-08-04T01:08:44.962Z,20.00
2018-08-04T01:11:49.752Z,20.10
2018-08-04T01:14:54.546Z,20.20
2018-08-04T01:17:59.104Z,20.30
2018-08-04T01:21:03.838Z,20.30
2018-08-04T01:24:08.536Z,20.20
2018-08-04T01:27:13.415Z,20.30
2018-08-04T01:30:17.657Z,20.00
2018-08-04T01:33:22.656Z,20.00
2018-08-04T01:36:27.580Z,19.90
2018-08-04T01:39:32.236Z,19.90
2018-08-04T01:42:36.984Z,20.00
2018-08-04T01:45:41.803Z,19.90
2018-08-04T01:48:47.013Z,20.00
2018-08-04T01:51:51.559Z,20.00
2018-08-04T01:54:56.010Z,20.00
2018-08-04T01:58:00.759Z,19.80
2018-08-04T02:01:05.486Z,19.70
2018-08-04T02:04:10.277Z,19.60
2018-08-04T02:07:15.207Z,19.50
2018-08-04T02:10:19.784Z,19.70
2018-08-04T02:16:28.657Z,19.60
2018-08-04T02:19:33.144Z,19.40
2018-08-04T02:22:37.474Z,19.30
2018-08-04T02:25:42.328Z,19.20
2018-08-04T02:28:47.068Z,19.10
2018-08-04T02:31:52.000Z,19.10
2018-08-04T02:34:56.706Z,19.10
2018-08-04T02:38:01.994Z,19.40
2018-08-04T02:41:06.816Z,19.70
2018-08-04T02:44:11.450Z,19.70
2018-08-04T02:47:16.610Z,19.60
2018-08-04T02:50:21.429Z,19.60
2018-08-04T02:53:26.164Z,19.40
2018-08-04T02:56:30.768Z,19.20
2018-08-04T02:59:35.705Z,19.00
2018-08-04T03:02:40.363Z,18.90
2018-08-04T03:05:44.508Z,19.10
2018-08-04T03:08:49.242Z,19.30
2018-08-04T03:11:53.827Z,19.20
2018-08-04T03:14:59.019Z,19.10
2018-08-04T03:18:03.604Z,19.00
2018-08-04T03:21:08.323Z,18.90
2018-08-04T03:24:13.204Z,19.10
2018-08-04T03:27:17.679Z,19.20
2018-08-04T03:30:22.482Z,19.20
2018-08-04T03:33:26.863Z,19.00
2018-08-04T03:36:31.661Z,18.80
2018-08-04T03:39:43.367Z,18.90
2018-08-04T03:42:48.242Z,19.10
2018-08-04T03:45:52.858Z,19.00
2018-08-04T03:48:57.240Z,18.70
2018-08-04T03:52:01.831Z,18.60
2018-08-04T03:55:06.481Z,18.50
2018-08-04T03:58:14.585Z,18.60
2018-08-04T04:01:19.159Z,19.10
2018-08-04T04:04:24.506Z,18.90
2018-08-04T04:07:29.399Z,18.70
2018-08-04T04:10:34.057Z,18.70
2018-08-04T04:13:39.046Z,18.80
2018-08-04T04:16:43.472Z,18.90
2018-08-04T04:19:47.909Z,19.10
2018-08-04T04:22:52.697Z,19.20
2018-08-04T04:25:57.189Z,19.20
2018-08-04T04:29:02.001Z,19.00
2018-08-04T04:32:07.425Z,19.10
2018-08-04T04:35:11.718Z,19.20
2018-08-04T04:38:16.043Z,19.00
2018-08-04T04:41:21.078Z,18.90
2018-08-04T04:44:25.596Z,19.00
2018-08-04T04:47:30.255Z,19.10
2018-08-04T04:50:35.201Z,19.10
2018-08-04T04:53:39.967Z,19.10
2018-08-04T04:56:44.576Z,19.20
2018-08-04T04:59:49.348Z,19.40
2018-08-04T05:02:53.673Z,19.40
2018-08-04T05:05:58.228Z,19.50
2018-08-04T05:09:03.452Z,19.60
2018-08-04T05:12:08.153Z,19.60
2018-08-04T05:15:12.691Z,19.80
2018-08-04T05:18:17.142Z,20.20
2018-08-04T05:21:22.866Z,20.20
2018-08-04T05:24:27.633Z,20.40
2018-08-04T05:27:32.609Z,20.60
2018-08-04T05:30:37.127Z,20.70
2018-08-04T05:33:41.597Z,20.80
2018-08-04T05:36:45.962Z,20.80
2018-08-04T05:39:50.918Z,20.90
2018-08-04T05:42:55.830Z,21.00
2018-08-04T05:46:00.461Z,21.00
2018-08-04T05:49:04.913Z,20.90
2018-08-04T05:52:09.291Z,21.00
2018-08-04T05:55:13.627Z,21.20
2018-08-04T05:58:18.834Z,21.50
2018-08-04T06:01:23.821Z,21.60
2018-08-04T06:04:28.050Z,21.70
2018-08-04T06:07:32.494Z,21.90
2018-08-04T06:10:37.269Z,22.00
2018-08-04T06:13:41.937Z,22.20
2018-08-04T06:16:46.363Z,22.40
2018-08-04T06:19:51.765Z,22.60
2018-08-04T06:22:57.721Z,22.70
2018-08-04T06:26:02.940Z,23.10
2018-08-04T06:29:07.462Z,23.40
2018-08-04T06:32:12.492Z,23.80
2018-08-04T06:35:17.416Z,25.10
2018-08-04T06:38:22.369Z,27.20
2018-08-04T06:41:27.288Z,29.20
2018-08-04T06:44:31.939Z,30.30
2018-08-04T06:47:37.086Z,31.40
2018-08-04T06:50:41.745Z,32.40
2018-08-04T06:53:46.362Z,31.70
2018-08-04T06:56:51.254Z,33.40
2018-08-04T06:59:56.567Z,34.30
2018-08-04T07:06:05.713Z,33.90
2018-08-04T07:09:10.714Z,34.00
2018-08-04T07:12:15.433Z,34.50
2018-08-04T07:15:20.057Z,35.80
2018-08-04T07:18:24.409Z,35.70
2018-08-04T07:21:29.347Z,36.10
2018-08-04T07:24:33.977Z,36.80
2018-08-04T07:27:38.534Z,36.20
2018-08-04T07:30:44.361Z,37.00
2018-08-04T07:33:48.981Z,37.00
2018-08-04T07:36:53.462Z,37.10
2018-08-04T07:39:58.131Z,37.90
2018-08-04T07:43:03.008Z,37.90
2018-08-04T07:46:07.806Z,37.70
2018-08-04T07:49:12.362Z,37.80
2018-08-04T07:55:20.900Z,38.00
2018-08-04T07:58:25.545Z,37.40
2018-08-04T08:01:30.213Z,38.10
2018-08-04T08:04:34.716Z,38.30
2018-08-04T08:07:39.331Z,37.80
2018-08-04T08:13:48.308Z,36.70
2018-08-04T08:16:53.120Z,36.30
2018-08-04T08:19:57.784Z,37.50
2018-08-04T08:23:02.663Z,37.40
2018-08-04T08:26:10.796Z,38.50
2018-08-04T08:29:15.272Z,38.50
2018-08-04T08:32:19.948Z,37.80
2018-08-04T08:35:24.704Z,38.90
2018-08-04T08:38:29.798Z,38.40
2018-08-04T08:41:34.633Z,36.90
2018-08-04T08:44:39.396Z,36.80
2018-08-04T08:47:43.942Z,38.00
2018-08-04T08:50:48.628Z,38.80
2018-08-04T08:53:53.233Z,38.70
2018-08-04T08:56:57.989Z,39.20
2018-08-04T09:00:02.718Z,39.40
2018-08-04T09:03:07.597Z,38.90
2018-08-04T09:06:12.076Z,39.00
2018-08-04T09:09:16.896Z,39.50
2018-08-04T09:12:21.361Z,40.10
2018-08-04T09:15:25.933Z,38.80
2018-08-04T09:18:30.687Z,39.60
2018-08-04T09:21:35.766Z,38.80
2018-08-04T09:24:40.737Z,38.00
2018-08-04T09:27:45.342Z,38.60
2018-08-04T09:30:49.860Z,38.20
2018-08-04T09:33:54.637Z,38.10
2018-08-04T09:36:58.994Z,38.70
2018-08-04T09:40:03.891Z,38.50
2018-08-04T09:43:08.144Z,39.40
2018-08-04T09:46:12.570Z,38.90
2018-08-04T09:49:19.860Z,38.40
2018-08-04T09:52:24.283Z,37.90
2018-08-04T09:55:28.430Z,37.20
2018-08-04T09:58:32.645Z,37.50
2018-08-04T10:01:37.976Z,37.20
2018-08-04T10:04:43.209Z,37.40
2018-08-04T10:07:47.624Z,38.50
2018-08-04T10:10:52.134Z,38.70
2018-08-04T10:13:56.875Z,38.80
2018-08-04T10:17:01.714Z,38.40
2018-08-04T10:20:08.605Z,36.80
2018-08-04T10:23:12.873Z,36.90
2018-08-04T10:26:18.627Z,37.80
2018-08-04T10:29:23.147Z,37.00
2018-08-04T10:32:27.628Z,36.50
2018-08-04T10:35:32.277Z,35.90
2018-08-04T10:38:37.004Z,36.20
2018-08-04T10:41:41.431Z,36.50
2018-08-04T10:44:46.157Z,38.00
2018-08-04T10:47:50.495Z,38.00
2018-08-04T10:50:54.800Z,38.00
2018-08-04T10:53:59.242Z,38.30
2018-08-04T10:57:03.633Z,36.50
2018-08-04T11:00:09.802Z,35.80
2018-08-04T11:03:14.273Z,35.10
2018-08-04T11:06:18.673Z,34.70
2018-08-04T11:09:23.104Z,35.10
2018-08-04T11:12:28.834Z,35.30
2018-08-04T11:15:33.357Z,35.60
2018-08-04T11:18:38.662Z,35.80
2018-08-04T11:21:43.323Z,35.30
2018-08-04T11:24:47.947Z,34.90
2018-08-04T11:27:52.569Z,34.00
2018-08-04T11:30:57.326Z,33.80
2018-08-04T11:34:01.919Z,33.70
2018-08-04T11:37:06.609Z,33.60
2018-08-04T11:40:10.962Z,33.40
2018-08-04T11:43:16.107Z,33.20
2018-08-04T11:46:21.165Z,33.00
2018-08-04T11:49:25.562Z,33.10
2018-08-04T11:52:30.132Z,33.20
2018-08-04T11:55:34.753Z,33.50
2018-08-04T11:58:39.440Z,33.60
2018-08-04T12:01:43.925Z,33.60
2018-08-04T12:04:49.456Z,33.40
2018-08-04T12:07:54.273Z,33.30
2018-08-04T12:11:00.553Z,33.30
2018-08-04T12:14:05.308Z,33.40
2018-08-04T12:17:10.050Z,33.20
2018-08-04T12:20:14.602Z,33.20
2018-08-04T12:23:19.357Z,33.10
2018-08-04T12:26:23.870Z,33.20
2018-08-04T12:29:28.368Z,33.50
2018-08-04T12:32:32.794Z,33.40
2018-08-04T12:35:37.087Z,33.40
2018-08-04T12:38:41.387Z,33.10
2018-08-04T12:41:45.926Z,33.40
2018-08-04T12:44:50.904Z,33.00
2018-08-04T12:47:55.570Z,33.10
2018-08-04T12:51:01.705Z,33.30
2018-08-04T12:54:06.452Z,33.20
2018-08-04T12:57:11.025Z,33.60
2018-08-04T13:00:16.095Z,33.80
2018-08-04T13:03:20.933Z,33.90
2018-08-04T13:06:25.453Z,33.60
2018-08-04T13:09:30.109Z,33.80
2018-08-04T13:12:34.826Z,33.90
2018-08-04T13:15:39.512Z,34.10
2018-08-04T13:18:44.451Z,33.90
2018-08-04T13:21:51.052Z,33.60
2018-08-04T13:24:57.412Z,33.60
2018-08-04T13:28:03.120Z,33.50
2018-08-04T13:31:11.818Z,33.60
2018-08-04T13:34:17.186Z,33.40
2018-08-04T13:37:21.395Z,33.60
2018-08-04T13:40:25.437Z,33.50
2018-08-04T13:43:30.556Z,33.60
2018-08-04T13:46:34.837Z,34.10
2018-08-04T13:49:39.166Z,34.30
2018-08-04T13:52:43.405Z,34.30
2018-08-04T13:55:47.862Z,34.30
2018-08-04T13:58:52.125Z,34.00
2018-08-04T14:01:56.670Z,33.90
2018-08-04T14:05:01.126Z,33.90
2018-08-04T14:08:05.664Z,33.80
2018-08-04T14:11:10.154Z,33.50
2018-08-04T14:14:14.309Z,33.60
2018-08-04T14:17:18.426Z,33.70
2018-08-04T14:20:23.279Z,33.60
2018-08-04T14:23:27.399Z,33.70
2018-08-04T14:26:31.952Z,34.00
2018-08-04T14:29:36.026Z,34.10
2018-08-04T14:32:40.241Z,34.00
2018-08-04T14:35:44.472Z,33.90
2018-08-04T14:38:50.608Z,34.00
2018-08-04T14:41:55.039Z,34.00
2018-08-04T14:44:59.339Z,34.10
2018-08-04T14:48:03.956Z,33.80
2018-08-04T14:51:08.358Z,33.50
2018-08-04T14:54:12.651Z,33.50
2018-08-04T14:57:16.911Z,33.50
2018-08-04T15:00:22.041Z,33.40
2018-08-04T15:03:26.450Z,33.50
2018-08-04T15:06:30.825Z,33.30
2018-08-04T15:09:35.145Z,33.30
2018-08-04T15:12:39.316Z,33.40
2018-08-04T15:15:43.856Z,33.10
2018-08-04T15:18:48.200Z,33.00
2018-08-04T15:21:52.368Z,32.90
2018-08-04T15:24:56.864Z,32.80
2018-08-04T15:28:01.007Z,32.80
2018-08-04T15:31:05.854Z,32.90
2018-08-04T15:34:10.309Z,33.20
2018-08-04T15:37:14.730Z,33.30
2018-08-04T15:40:19.028Z,33.00
2018-08-04T15:43:23.383Z,32.90
2018-08-04T15:46:27.517Z,32.90
2018-08-04T15:49:31.841Z,33.00
2018-08-04T15:52:36.720Z,33.00
2018-08-04T15:55:41.160Z,33.00
2018-08-04T15:58:45.741Z,32.90
2018-08-04T16:01:49.911Z,32.70
2018-08-04T16:04:54.095Z,32.60
2018-08-04T16:07:58.661Z,32.40
2018-08-04T16:11:03.308Z,32.50
2018-08-04T16:14:09.319Z,32.60
2018-08-04T16:17:13.666Z,32.70
2018-08-04T16:20:19.705Z,32.70
2018-08-04T16:23:23.913Z,32.70
2018-08-04T16:26:28.293Z,32.60
2018-08-04T16:29:32.727Z,32.50
2018-08-04T16:32:37.512Z,32.60
2018-08-04T16:35:41.920Z,32.50
2018-08-04T16:38:46.268Z,32.50
2018-08-04T16:41:51.072Z,32.30
2018-08-04T16:44:55.504Z,32.20
2018-08-04T16:48:00.043Z,32.20
2018-08-04T16:54:09.547Z,31.90
2018-08-04T16:57:13.890Z,31.70
2018-08-04T17:00:18.464Z,31.70
2018-08-04T17:03:23.090Z,31.70
2018-08-04T17:06:27.540Z,31.60
2018-08-04T17:09:32.110Z,31.60
2018-08-04T17:12:36.500Z,31.60
2018-08-04T17:15:41.046Z,31.50
2018-08-04T17:18:45.601Z,31.40
2018-08-04T17:21:50.176Z,31.30
2018-08-04T17:24:54.603Z,31.20
2018-08-04T17:27:58.984Z,31.20
2018-08-04T17:31:03.937Z,31.10
2018-08-04T17:34:08.172Z,30.90
2018-08-04T17:37:12.532Z,30.90
2018-08-04T17:40:16.817Z,30.90
2018-08-04T17:43:21.030Z,30.80
2018-08-04T17:46:25.550Z,30.70
2018-08-04T17:49:29.947Z,30.80
2018-08-04T17:52:34.299Z,30.60
2018-08-04T17:55:38.838Z,30.50
2018-08-04T17:58:43.150Z,30.30
2018-08-04T18:01:47.448Z,30.30
2018-08-04T18:04:52.017Z,30.20
2018-08-04T18:07:56.446Z,30.20
2018-08-04T18:11:00.688Z,30.10
2018-08-04T18:17:09.587Z,29.80
2018-08-04T18:20:13.946Z,29.80
2018-08-04T18:23:18.360Z,29.70
2018-08-04T18:26:22.629Z,29.60
2018-08-04T18:29:27.203Z,29.60
2018-08-04T18:32:31.680Z,29.50
2018-08-04T18:35:36.036Z,29.30
2018-08-04T18:38:40.425Z,29.30
2018-08-04T18:41:44.948Z,29.10
2018-08-04T18:44:49.228Z,29.00
2018-08-04T18:47:53.479Z,29.00
2018-08-04T18:50:57.826Z,29.10
2018-08-04T18:54:02.025Z,28.90
2018-08-04T18:57:06.480Z,28.90
2018-08-04T19:00:11.060Z,28.90
2018-08-04T19:03:15.284Z,28.80
2018-08-04T19:06:19.489Z,28.70
2018-08-04T19:09:23.771Z,28.60
2018-08-04T19:12:28.117Z,28.50
2018-08-04T19:15:32.825Z,28.40
2018-08-04T19:18:37.010Z,28.30
2018-08-04T19:21:41.784Z,28.10
2018-08-04T19:24:46.038Z,28.10
2018-08-04T19:27:50.494Z,28.00
2018-08-04T19:30:54.716Z,28.00
2018-08-04T19:33:59.076Z,27.90
2018-08-04T19:37:03.418Z,27.70
2018-08-04T19:40:07.970Z,27.40
2018-08-04T19:43:13.313Z,27.30
2018-08-04T19:46:17.887Z,27.10
2018-08-04T19:49:22.064Z,26.90
2018-08-04T19:52:26.567Z,26.70
2018-08-04T19:55:30.883Z,26.60
2018-08-04T19:58:35.217Z,26.50
2018-08-04T20:01:39.605Z,26.40
2018-08-04T20:07:47.603Z,26.30
2018-08-04T20:10:52.642Z,26.30
2018-08-04T20:13:57.062Z,26.40
2018-08-04T20:17:01.346Z,26.30
2018-08-04T20:20:05.814Z,26.20
2018-08-04T20:23:10.167Z,26.10
2018-08-04T20:26:14.603Z,26.00
2018-08-04T20:29:19.165Z,26.00
2018-08-04T20:32:23.393Z,25.90
2018-08-04T20:35:27.643Z,25.90
2018-08-04T20:38:32.020Z,25.80
2018-08-04T20:41:36.720Z,25.70
2018-08-04T20:44:41.416Z,25.60
2018-08-04T20:47:45.934Z,25.50
2018-08-04T20:50:50.598Z,25.50
2018-08-04T20:53:56.561Z,25.40
2018-08-04T20:57:05.199Z,25.30
2018-08-04T21:00:12.051Z,25.20
2018-08-04T21:03:16.319Z,25.20
2018-08-04T21:06:20.884Z,25.20
2018-08-04T21:09:25.344Z,25.20
2018-08-04T21:12:29.916Z,25.10
2018-08-04T21:15:34.248Z,25.10
2018-08-04T21:18:41.572Z,25.10
2018-08-04T21:21:46.275Z,25.10
2018-08-04T21:24:50.621Z,25.10
2018-08-04T21:27:54.931Z,25.20
2018-08-04T21:30:59.214Z,25.20
2018-08-04T21:37:07.417Z,25.10
2018-08-04T21:40:11.717Z,25.10
2018-08-04T21:43:15.930Z,25.00
2018-08-04T21:46:20.553Z,24.90
2018-08-04T21:49:24.853Z,24.80
2018-08-04T21:52:29.200Z,24.70
2018-08-04T21:55:33.632Z,24.60
2018-08-04T21:58:38.091Z,24.60
2018-08-04T22:01:47.720Z,24.60
2018-08-04T22:04:52.272Z,24.60
2018-08-04T22:08:08.831Z,24.50
2018-08-04T22:11:13.081Z,24.40
2018-08-04T22:14:17.581Z,24.40
2018-08-04T22:17:21.828Z,24.30
2018-08-04T22:20:26.925Z,24.30
2018-08-04T22:23:31.460Z,24.20
2018-08-04T22:26:35.781Z,24.20
2018-08-04T22:29:40.030Z,24.10
2018-08-04T22:32:44.999Z,24.00
2018-08-04T22:35:49.910Z,24.00
2018-08-04T22:38:54.078Z,23.90
2018-08-04T22:41:58.345Z,23.70
2018-08-04T22:46:07.653Z,23.60
2018-08-04T22:49:11.832Z,23.50
2018-08-04T22:52:16.107Z,23.40
2018-08-04T22:55:21.013Z,23.20
2018-08-04T22:58:25.468Z,23.20
2018-08-04T23:01:29.651Z,23.10
2018-08-04T23:04:33.881Z,23.10
2018-08-04T23:07:38.299Z,23.00
2018-08-04T23:10:43.028Z,22.90
2018-08-04T23:13:47.935Z,22.90
2018-08-04T23:16:52.427Z,22.80
2018-08-04T23:19:56.585Z,22.70
2018-08-04T23:23:00.931Z,22.60
2018-08-04T23:26:05.385Z,22.60
2018-08-04T23:29:09.537Z,22.40
2018-08-04T23:32:13.681Z,22.40
2018-08-04T23:35:18.072Z,22.30
2018-08-04T23:38:22.338Z,22.10
2018-08-04T23:41:26.484Z,22.10
2018-08-04T23:44:31.138Z,22.10
2018-08-04T23:47:35.600Z,22.10
2018-08-04T23:50:39.843Z,22.10
2018-08-04T23:53:44.447Z,22.00
2018-08-04T23:56:48.765Z,22.00
2018-08-04T23:59:52.918Z,22.00
